sensor_id;sensor_type;location;lat;lon;timestamp;pressure;altitude;pressure_sealevel;temperature;humidity
70921;BME280;58572;48.110;19.838;2023-06-22T00:01:18;98017.44;;;20.82;80.52
70921;BME280;58572;48.110;19.838;2023-06-22T00:03:45;98019.50;;;19.91;87.09
70921;BME280;58572;48.110;19.838;2023-06-22T00:06:12;98017.28;;;20.29;84.00
70921;BME280;58572;48.110;19.838;2023-06-22T00:08:39;98027.56;;;20.65;81.32
70921;BME280;58572;48.110;19.838;2023-06-22T00:11:09;98023.69;;;21.19;78.26
70921;BME280;58572;48.110;19.838;2023-06-22T00:13:37;98006.31;;;21.18;77.40
70921;BME280;58572;48.110;19.838;2023-06-22T00:16:04;98024.00;;;20.89;79.70
70921;BME280;58572;48.110;19.838;2023-06-22T00:18:32;98006.22;;;21.02;77.94
70921;BME280;58572;48.110;19.838;2023-06-22T00:21:03;98026.81;;;21.29;77.52
70921;BME280;58572;48.110;19.838;2023-06-22T00:23:32;97892.78;;;20.34;77.96
70921;BME280;58572;48.110;19.838;2023-06-22T00:26:00;98022.34;;;21.25;77.71
70921;BME280;58572;48.110;19.838;2023-06-22T00:28:29;98017.06;;;20.95;80.24
70921;BME280;58572;48.110;19.838;2023-06-22T00:30:56;98012.47;;;20.51;83.01
70921;BME280;58572;48.110;19.838;2023-06-22T00:33:24;98016.50;;;20.65;81.00
70921;BME280;58572;48.110;19.838;2023-06-22T00:35:51;98013.59;;;21.23;77.90
70921;BME280;58572;48.110;19.838;2023-06-22T00:38:19;98024.34;;;21.40;76.71
70921;BME280;58572;48.110;19.838;2023-06-22T00:40:48;97820.19;;;19.36;81.95
70921;BME280;58572;48.110;19.838;2023-06-22T00:43:16;98026.97;;;19.90;86.57
70921;BME280;58572;48.110;19.838;2023-06-22T00:45:45;98023.88;;;19.92;87.54
70921;BME280;58572;48.110;19.838;2023-06-22T00:48:13;98024.22;;;20.72;80.52
70921;BME280;58572;48.110;19.838;2023-06-22T00:50:40;98026.94;;;21.09;78.38
70921;BME280;58572;48.110;19.838;2023-06-22T00:53:08;98041.72;;;20.88;79.44
70921;BME280;58572;48.110;19.838;2023-06-22T00:55:37;98020.94;;;21.19;77.90
70921;BME280;58572;48.110;19.838;2023-06-22T00:58:05;97936.72;;;20.64;78.01
70921;BME280;58572;48.110;19.838;2023-06-22T01:00:36;97963.78;;;20.58;79.05
70921;BME280;58572;48.110;19.838;2023-06-22T01:03:05;98024.91;;;20.93;78.96
70921;BME280;58572;48.110;19.838;2023-06-22T01:05:35;97903.84;;;20.47;77.79
70921;BME280;58572;48.110;19.838;2023-06-22T01:08:08;98011.94;;;21.22;79.14
70921;BME280;58572;48.110;19.838;2023-06-22T01:10:44;97913.72;;;20.60;77.27
70921;BME280;58572;48.110;19.838;2023-06-22T01:13:20;98029.69;;;21.21;77.42
70921;BME280;58572;48.110;19.838;2023-06-22T01:15:55;98022.84;;;20.54;82.31
70921;BME280;58572;48.110;19.838;2023-06-22T01:18:24;98024.91;;;20.69;80.04
70921;BME280;58572;48.110;19.838;2023-06-22T01:21:00;98015.88;;;20.35;82.84
70921;BME280;58572;48.110;19.838;2023-06-22T01:23:36;98013.09;;;20.11;84.01
70921;BME280;58572;48.110;19.838;2023-06-22T01:26:08;98014.03;;;19.49;90.90
70921;BME280;58572;48.110;19.838;2023-06-22T01:28:55;98003.94;;;19.32;92.82
70921;BME280;58572;48.110;19.838;2023-06-22T01:31:26;98007.19;;;19.13;94.80
70921;BME280;58572;48.110;19.838;2023-06-22T01:34:00;97960.41;;;18.55;96.66
70921;BME280;58572;48.110;19.838;2023-06-22T01:36:28;98004.25;;;20.18;85.44
70921;BME280;58572;48.110;19.838;2023-06-22T01:38:57;98013.84;;;19.12;95.03
70921;BME280;58572;48.110;19.838;2023-06-22T01:41:26;97988.38;;;19.69;86.65
70921;BME280;58572;48.110;19.838;2023-06-22T01:43:56;98032.97;;;20.50;82.33
70921;BME280;58572;48.110;19.838;2023-06-22T01:46:24;98043.78;;;20.91;80.03
70921;BME280;58572;48.110;19.838;2023-06-22T01:48:52;98049.53;;;20.98;81.84
70921;BME280;58572;48.110;19.838;2023-06-22T01:51:20;98050.78;;;21.13;78.54
70921;BME280;58572;48.110;19.838;2023-06-22T01:53:47;98052.50;;;21.18;78.01
70921;BME280;58572;48.110;19.838;2023-06-22T01:56:17;98044.03;;;20.86;79.89
70921;BME280;58572;48.110;19.838;2023-06-22T01:58:48;98042.16;;;20.66;81.38
70921;BME280;58572;48.110;19.838;2023-06-22T02:01:24;98039.03;;;21.16;78.46
70921;BME280;58572;48.110;19.838;2023-06-22T02:04:00;98038.22;;;21.16;78.23
70921;BME280;58572;48.110;19.838;2023-06-22T02:06:34;97959.75;;;20.68;78.54
70921;BME280;58572;48.110;19.838;2023-06-22T02:09:07;98008.75;;;20.34;85.05
70921;BME280;58572;48.110;19.838;2023-06-22T02:11:36;98012.41;;;20.02;86.67
70921;BME280;58572;48.110;19.838;2023-06-22T02:14:05;98003.50;;;20.90;80.19
70921;BME280;58572;48.110;19.838;2023-06-22T02:16:35;98007.84;;;21.03;78.58
70921;BME280;58572;48.110;19.838;2023-06-22T02:19:03;98003.91;;;21.04;78.44
70921;BME280;58572;48.110;19.838;2023-06-22T02:21:32;97845.44;;;20.08;81.56
70921;BME280;58572;48.110;19.838;2023-06-22T02:23:58;98016.38;;;20.98;79.06
70921;BME280;58572;48.110;19.838;2023-06-22T02:26:26;97991.47;;;20.13;87.03
70921;BME280;58572;48.110;19.838;2023-06-22T02:28:54;97997.50;;;20.76;80.45
70921;BME280;58572;48.110;19.838;2023-06-22T02:31:21;97992.16;;;21.08;78.95
70921;BME280;58572;48.110;19.838;2023-06-22T02:33:50;98004.38;;;21.07;78.64
70921;BME280;58572;48.110;19.838;2023-06-22T02:36:17;98031.88;;;21.15;77.88
70921;BME280;58572;48.110;19.838;2023-06-22T02:38:48;97980.94;;;20.88;78.05
70921;BME280;58572;48.110;19.838;2023-06-22T02:41:16;98020.06;;;20.78;81.35
70921;BME280;58572;48.110;19.838;2023-06-22T02:43:44;97981.38;;;20.90;79.05
70921;BME280;58572;48.110;19.838;2023-06-22T02:46:12;98002.13;;;20.60;80.56
70921;BME280;58572;48.110;19.838;2023-06-22T02:48:40;98012.94;;;20.89;79.21
70921;BME280;58572;48.110;19.838;2023-06-22T02:51:08;98003.16;;;19.86;86.87
70921;BME280;58572;48.110;19.838;2023-06-22T02:53:36;97991.53;;;20.62;79.65
70921;BME280;58572;48.110;19.838;2023-06-22T02:56:03;97966.19;;;19.66;86.66
70921;BME280;58572;48.110;19.838;2023-06-22T02:58:32;97989.78;;;20.57;80.65
70921;BME280;58572;48.110;19.838;2023-06-22T03:01:04;97989.66;;;21.02;78.46
70921;BME280;58572;48.110;19.838;2023-06-22T03:03:31;97983.28;;;21.14;77.65
70921;BME280;58572;48.110;19.838;2023-06-22T03:05:58;97990.09;;;21.04;78.05
70921;BME280;58572;48.110;19.838;2023-06-22T03:08:28;97976.31;;;20.80;78.42
70921;BME280;58572;48.110;19.838;2023-06-22T03:10:56;97999.41;;;21.12;77.18
70921;BME280;58572;48.110;19.838;2023-06-22T03:13:23;98005.75;;;21.13;77.61
70921;BME280;58572;48.110;19.838;2023-06-22T03:15:50;98013.09;;;21.21;77.10
70921;BME280;58572;48.110;19.838;2023-06-22T03:18:18;98019.13;;;21.11;77.24
70921;BME280;58572;48.110;19.838;2023-06-22T03:20:47;98027.19;;;21.03;77.88
70921;BME280;58572;48.110;19.838;2023-06-22T03:23:15;98012.13;;;20.64;81.61
70921;BME280;58572;48.110;19.838;2023-06-22T03:25:44;98025.28;;;20.10;83.46
70921;BME280;58572;48.110;19.838;2023-06-22T03:28:12;98029.06;;;20.87;79.05
70921;BME280;58572;48.110;19.838;2023-06-22T03:30:39;98038.25;;;20.91;80.99
70921;BME280;58572;48.110;19.838;2023-06-22T03:33:06;97934.44;;;19.93;80.56
70921;BME280;58572;48.110;19.838;2023-06-22T03:35:33;98033.06;;;20.53;82.24
70921;BME280;58572;48.110;19.838;2023-06-22T03:38:01;98007.16;;;20.70;78.94
70921;BME280;58572;48.110;19.838;2023-06-22T03:40:28;97966.97;;;20.12;81.51
70921;BME280;58572;48.110;19.838;2023-06-22T03:42:57;98042.75;;;20.96;78.55
70921;BME280;58572;48.110;19.838;2023-06-22T03:45:24;98046.63;;;20.34;83.18
70921;BME280;58572;48.110;19.838;2023-06-22T03:47:51;98049.31;;;20.67;80.78
70921;BME280;58572;48.110;19.838;2023-06-22T03:50:18;97960.06;;;19.93;82.83
70921;BME280;58572;48.110;19.838;2023-06-22T03:52:46;98036.19;;;21.00;78.97
70921;BME280;58572;48.110;19.838;2023-06-22T03:55:14;98044.00;;;21.11;77.88
70921;BME280;58572;48.110;19.838;2023-06-22T03:57:41;97976.78;;;20.21;81.02
70921;BME280;58572;48.110;19.838;2023-06-22T04:00:12;98036.50;;;21.11;77.99
70921;BME280;58572;48.110;19.838;2023-06-22T04:02:39;98036.16;;;21.25;76.85
70921;BME280;58572;48.110;19.838;2023-06-22T04:05:08;98039.38;;;21.27;77.41
70921;BME280;58572;48.110;19.838;2023-06-22T04:07:35;98048.00;;;21.38;76.69
70921;BME280;58572;48.110;19.838;2023-06-22T04:10:04;98047.63;;;21.39;76.53
70921;BME280;58572;48.110;19.838;2023-06-22T04:12:31;98049.47;;;21.47;76.00
70921;BME280;58572;48.110;19.838;2023-06-22T04:14:58;98047.66;;;21.15;78.05
70921;BME280;58572;48.110;19.838;2023-06-22T04:17:26;98046.75;;;21.23;77.36
70921;BME280;58572;48.110;19.838;2023-06-22T04:19:54;98050.06;;;21.41;76.47
70921;BME280;58572;48.110;19.838;2023-06-22T04:22:21;98044.25;;;20.93;84.84
70921;BME280;58572;48.110;19.838;2023-06-22T04:24:48;98009.59;;;20.59;80.27
70921;BME280;58572;48.110;19.838;2023-06-22T04:27:18;98047.97;;;20.28;88.87
70921;BME280;58572;48.110;19.838;2023-06-22T04:29:45;98054.06;;;20.21;88.15
70921;BME280;58572;48.110;19.838;2023-06-22T04:32:17;98052.75;;;21.13;79.20
70921;BME280;58572;48.110;19.838;2023-06-22T04:34:46;98045.84;;;21.59;76.52
70921;BME280;58572;48.110;19.838;2023-06-22T04:37:13;98061.63;;;21.58;76.49
70921;BME280;58572;48.110;19.838;2023-06-22T04:39:41;98058.91;;;21.46;76.86
70921;BME280;58572;48.110;19.838;2023-06-22T04:42:08;98052.47;;;21.42;76.92
70921;BME280;58572;48.110;19.838;2023-06-22T04:44:35;98056.75;;;21.40;77.46
70921;BME280;58572;48.110;19.838;2023-06-22T04:47:02;98053.03;;;21.48;77.02
70921;BME280;58572;48.110;19.838;2023-06-22T04:49:34;98055.75;;;21.60;76.49
70921;BME280;58572;48.110;19.838;2023-06-22T04:52:05;98062.78;;;21.57;76.51
70921;BME280;58572;48.110;19.838;2023-06-22T04:54:33;98060.03;;;21.57;76.90
70921;BME280;58572;48.110;19.838;2023-06-22T04:57:02;97943.16;;;20.80;77.58
70921;BME280;58572;48.110;19.838;2023-06-22T04:59:30;97877.59;;;20.28;78.00
70921;BME280;58572;48.110;19.838;2023-06-22T05:01:58;98056.59;;;21.48;77.38
70921;BME280;58572;48.110;19.838;2023-06-22T05:04:27;98055.91;;;21.51;77.66
70921;BME280;58572;48.110;19.838;2023-06-22T05:06:57;98058.94;;;21.22;80.98
70921;BME280;58572;48.110;19.838;2023-06-22T05:09:26;98055.91;;;21.51;77.89
70921;BME280;58572;48.110;19.838;2023-06-22T05:11:53;98059.56;;;21.55;77.19
70921;BME280;58572;48.110;19.838;2023-06-22T05:14:22;98016.75;;;21.37;76.78
70921;BME280;58572;48.110;19.838;2023-06-22T05:16:50;98058.63;;;21.11;79.82
70921;BME280;58572;48.110;19.838;2023-06-22T05:19:17;98061.69;;;21.46;77.63
70921;BME280;58572;48.110;19.838;2023-06-22T05:21:44;98068.19;;;20.77;86.97
70921;BME280;58572;48.110;19.838;2023-06-22T05:24:14;98048.81;;;21.26;79.89
70921;BME280;58572;48.110;19.838;2023-06-22T05:26:42;98067.88;;;21.55;77.80
70921;BME280;58572;48.110;19.838;2023-06-22T05:29:10;97901.78;;;19.95;80.04
70921;BME280;58572;48.110;19.838;2023-06-22T05:31:37;98086.16;;;21.32;79.34
70921;BME280;58572;48.110;19.838;2023-06-22T05:34:05;98084.78;;;21.14;79.67
70921;BME280;58572;48.110;19.838;2023-06-22T05:36:32;98087.59;;;21.54;78.33
70921;BME280;58572;48.110;19.838;2023-06-22T05:39:11;98088.66;;;21.49;78.17
70921;BME280;58572;48.110;19.838;2023-06-22T05:41:38;98093.06;;;21.01;81.83
70921;BME280;58572;48.110;19.838;2023-06-22T05:44:07;98023.50;;;21.12;77.42
70921;BME280;58572;48.110;19.838;2023-06-22T05:46:34;98095.25;;;21.73;77.10
70921;BME280;58572;48.110;19.838;2023-06-22T05:49:01;98105.88;;;21.71;77.00
70921;BME280;58572;48.110;19.838;2023-06-22T05:51:29;98111.66;;;21.65;77.64
70921;BME280;58572;48.110;19.838;2023-06-22T05:53:56;98111.63;;;21.13;80.94
70921;BME280;58572;48.110;19.838;2023-06-22T05:56:24;98107.72;;;21.66;77.30
70921;BME280;58572;48.110;19.838;2023-06-22T05:58:51;98119.66;;;21.95;77.07
70921;BME280;58572;48.110;19.838;2023-06-22T06:01:20;98132.50;;;21.75;76.52
70921;BME280;58572;48.110;19.838;2023-06-22T06:03:47;98123.03;;;21.76;77.14
70921;BME280;58572;48.110;19.838;2023-06-22T06:06:15;98115.28;;;21.82;76.84
70921;BME280;58572;48.110;19.838;2023-06-22T06:08:43;98119.16;;;21.65;83.94
70921;BME280;58572;48.110;19.838;2023-06-22T06:11:10;98114.72;;;21.36;79.52
70921;BME280;58572;48.110;19.838;2023-06-22T06:13:37;98074.81;;;21.49;77.99
70921;BME280;58572;48.110;19.838;2023-06-22T06:16:04;98119.09;;;21.77;83.46
70921;BME280;58572;48.110;19.838;2023-06-22T06:18:33;98126.25;;;21.78;77.63
70921;BME280;58572;48.110;19.838;2023-06-22T06:21:00;98131.44;;;21.92;79.13
70921;BME280;58572;48.110;19.838;2023-06-22T06:23:27;98137.88;;;21.84;77.65
70921;BME280;58572;48.110;19.838;2023-06-22T06:25:54;98138.13;;;21.79;77.20
70921;BME280;58572;48.110;19.838;2023-06-22T06:28:21;98137.06;;;21.43;85.38
70921;BME280;58572;48.110;19.838;2023-06-22T06:30:48;98133.78;;;21.65;80.26
70921;BME280;58572;48.110;19.838;2023-06-22T06:33:17;98135.59;;;21.86;84.03
70921;BME280;58572;48.110;19.838;2023-06-22T06:35:46;98141.22;;;21.37;85.98
70921;BME280;58572;48.110;19.838;2023-06-22T06:38:13;98062.06;;;21.20;79.26
70921;BME280;58572;48.110;19.838;2023-06-22T06:40:40;98145.06;;;21.73;80.01
70921;BME280;58572;48.110;19.838;2023-06-22T06:43:08;98077.53;;;21.61;77.21
70921;BME280;58572;48.110;19.838;2023-06-22T06:45:35;98146.63;;;21.98;77.89
70921;BME280;58572;48.110;19.838;2023-06-22T06:48:03;98120.69;;;22.03;76.63
70921;BME280;58572;48.110;19.838;2023-06-22T06:50:30;98139.28;;;21.90;82.53
70921;BME280;58572;48.110;19.838;2023-06-22T06:53:05;98145.03;;;21.97;82.93
70921;BME280;58572;48.110;19.838;2023-06-22T06:55:32;98137.97;;;21.47;85.97
70921;BME280;58572;48.110;19.838;2023-06-22T06:57:59;97956.28;;;20.71;82.29
70921;BME280;58572;48.110;19.838;2023-06-22T07:00:27;98144.25;;;22.24;77.82
70921;BME280;58572;48.110;19.838;2023-06-22T07:02:54;98097.78;;;21.78;80.66
70921;BME280;58572;48.110;19.838;2023-06-22T07:05:21;98133.75;;;21.90;79.60
70921;BME280;58572;48.110;19.838;2023-06-22T07:07:49;98134.63;;;22.50;76.31
70921;BME280;58572;48.110;19.838;2023-06-22T07:10:17;98117.47;;;22.60;75.33
70921;BME280;58572;48.110;19.838;2023-06-22T07:12:45;98130.75;;;22.23;83.13
70921;BME280;58572;48.110;19.838;2023-06-22T07:15:14;97999.13;;;22.13;80.10
70921;BME280;58572;48.110;19.838;2023-06-22T07:17:41;98125.59;;;22.97;74.60
70921;BME280;58572;48.110;19.838;2023-06-22T07:20:09;98120.94;;;23.01;77.60
70921;BME280;58572;48.110;19.838;2023-06-22T07:22:37;98136.75;;;21.85;83.81
70921;BME280;58572;48.110;19.838;2023-06-22T07:25:06;98124.81;;;22.68;78.56
70921;BME280;58572;48.110;19.838;2023-06-22T07:27:37;98090.84;;;22.71;79.89
70921;BME280;58572;48.110;19.838;2023-06-22T07:30:06;98121.97;;;21.81;85.26
70921;BME280;58572;48.110;19.838;2023-06-22T07:32:34;98116.03;;;23.29;76.46
70921;BME280;58572;48.110;19.838;2023-06-22T07:35:01;98126.09;;;23.18;80.39
70921;BME280;58572;48.110;19.838;2023-06-22T07:37:28;98124.38;;;22.66;81.93
70921;BME280;58572;48.110;19.838;2023-06-22T07:39:56;98117.09;;;23.40;77.86
70921;BME280;58572;48.110;19.838;2023-06-22T07:42:24;98114.88;;;23.30;79.50
70921;BME280;58572;48.110;19.838;2023-06-22T07:44:53;98127.25;;;23.68;75.10
70921;BME280;58572;48.110;19.838;2023-06-22T07:47:21;98132.53;;;23.92;76.89
70921;BME280;58572;48.110;19.838;2023-06-22T07:49:51;98138.91;;;23.58;75.32
70921;BME280;58572;48.110;19.838;2023-06-22T07:52:20;98129.47;;;23.97;74.71
70921;BME280;58572;48.110;19.838;2023-06-22T07:54:48;98132.56;;;24.31;72.71
70921;BME280;58572;48.110;19.838;2023-06-22T07:57:15;98061.34;;;23.65;72.46
70921;BME280;58572;48.110;19.838;2023-06-22T07:59:42;98132.94;;;24.52;73.10
70921;BME280;58572;48.110;19.838;2023-06-22T08:02:11;98062.97;;;24.04;71.76
70921;BME280;58572;48.110;19.838;2023-06-22T08:04:38;98137.16;;;24.65;74.68
70921;BME280;58572;48.110;19.838;2023-06-22T08:07:07;98129.47;;;23.97;73.69
70921;BME280;58572;48.110;19.838;2023-06-22T08:09:35;98128.25;;;23.95;74.61
70921;BME280;58572;48.110;19.838;2023-06-22T08:12:02;98130.66;;;23.96;76.82
70921;BME280;58572;48.110;19.838;2023-06-22T08:14:30;98120.97;;;24.94;75.46
70921;BME280;58572;48.110;19.838;2023-06-22T08:16:58;98121.50;;;24.99;74.92
70921;BME280;58572;48.110;19.838;2023-06-22T08:19:27;98110.81;;;25.01;74.77
70921;BME280;58572;48.110;19.838;2023-06-22T08:21:55;97901.81;;;23.59;75.09
70921;BME280;58572;48.110;19.838;2023-06-22T08:24:22;98124.84;;;24.89;77.91
70921;BME280;58572;48.110;19.838;2023-06-22T08:26:51;98127.78;;;24.12;80.17
70921;BME280;58572;48.110;19.838;2023-06-22T08:29:18;98122.09;;;24.66;68.46
70921;BME280;58572;48.110;19.838;2023-06-22T08:31:45;98080.69;;;24.38;71.93
70921;BME280;58572;48.110;19.838;2023-06-22T08:34:12;98129.19;;;25.32;69.97
70921;BME280;58572;48.110;19.838;2023-06-22T08:36:41;98122.03;;;25.61;68.57
70921;BME280;58572;48.110;19.838;2023-06-22T08:39:09;98133.00;;;24.98;76.66
70921;BME280;58572;48.110;19.838;2023-06-22T08:41:36;98132.06;;;25.39;68.59
70921;BME280;58572;48.110;19.838;2023-06-22T08:44:04;98126.81;;;25.61;63.12
70921;BME280;58572;48.110;19.838;2023-06-22T08:46:31;98132.03;;;25.92;70.63
70921;BME280;58572;48.110;19.838;2023-06-22T08:48:59;98121.50;;;24.99;69.85
70921;BME280;58572;48.110;19.838;2023-06-22T08:51:27;98122.47;;;25.63;70.37
70921;BME280;58572;48.110;19.838;2023-06-22T08:53:56;98119.19;;;25.58;68.34
70921;BME280;58572;48.110;19.838;2023-06-22T08:56:23;98129.78;;;26.35;67.12
70921;BME280;58572;48.110;19.838;2023-06-22T08:58:51;98121.31;;;26.28;67.81
70921;BME280;58572;48.110;19.838;2023-06-22T09:01:18;98075.28;;;26.04;70.64
70921;BME280;58572;48.110;19.838;2023-06-22T09:03:45;98119.22;;;25.31;70.79
70921;BME280;58572;48.110;19.838;2023-06-22T09:06:19;98115.66;;;26.21;68.77
70921;BME280;58572;48.110;19.838;2023-06-22T09:08:47;98123.88;;;26.40;67.90
70921;BME280;58572;48.110;19.838;2023-06-22T09:11:16;98121.38;;;26.31;71.12
70921;BME280;58572;48.110;19.838;2023-06-22T09:13:43;98112.75;;;26.84;69.03
70921;BME280;58572;48.110;19.838;2023-06-22T09:16:11;98111.06;;;25.72;71.20
70921;BME280;58572;48.110;19.838;2023-06-22T09:18:39;98116.59;;;26.32;67.64
70921;BME280;58572;48.110;19.838;2023-06-22T09:21:07;98118.09;;;26.59;70.62
70921;BME280;58572;48.110;19.838;2023-06-22T09:23:34;98113.28;;;26.56;71.38
70921;BME280;58572;48.110;19.838;2023-06-22T09:26:01;98002.69;;;25.60;71.16
70921;BME280;58572;48.110;19.838;2023-06-22T09:28:31;98109.22;;;26.91;71.02
70921;BME280;58572;48.110;19.838;2023-06-22T09:30:59;98121.09;;;26.06;70.66
70921;BME280;58572;48.110;19.838;2023-06-22T09:33:27;98080.41;;;26.80;67.54
70921;BME280;58572;48.110;19.838;2023-06-22T09:36:30;98112.69;;;27.21;68.39
70921;BME280;58572;48.110;19.838;2023-06-22T09:39:13;98102.69;;;27.82;66.22
70921;BME280;58572;48.110;19.838;2023-06-22T09:41:42;98065.59;;;27.16;70.15
70921;BME280;58572;48.110;19.838;2023-06-22T09:44:15;98096.50;;;26.97;70.35
70921;BME280;58572;48.110;19.838;2023-06-22T09:46:43;98085.66;;;27.32;67.59
70921;BME280;58572;48.110;19.838;2023-06-22T09:49:10;98105.72;;;27.56;63.07
70921;BME280;58572;48.110;19.838;2023-06-22T09:51:39;98105.56;;;26.83;63.35
70921;BME280;58572;48.110;19.838;2023-06-22T09:54:06;98113.59;;;26.14;63.63
70921;BME280;58572;48.110;19.838;2023-06-22T09:56:33;98098.38;;;27.95;61.71
70921;BME280;58572;48.110;19.838;2023-06-22T09:59:00;98111.31;;;27.01;62.54
70921;BME280;58572;48.110;19.838;2023-06-22T10:01:29;98110.50;;;26.56;61.62
70921;BME280;58572;48.110;19.838;2023-06-22T10:03:56;98106.28;;;27.79;62.76
70921;BME280;58572;48.110;19.838;2023-06-22T10:06:24;98105.94;;;27.22;66.59
70921;BME280;58572;48.110;19.838;2023-06-22T10:08:51;98103.88;;;27.78;64.62
70921;BME280;58572;48.110;19.838;2023-06-22T10:11:19;98049.44;;;26.44;62.61
70921;BME280;58572;48.110;19.838;2023-06-22T10:13:48;98102.66;;;27.75;63.73
70921;BME280;58572;48.110;19.838;2023-06-22T10:16:15;98109.69;;;27.51;65.91
70921;BME280;58572;48.110;19.838;2023-06-22T10:18:44;98107.44;;;27.09;62.00
70921;BME280;58572;48.110;19.838;2023-06-22T10:21:11;98106.31;;;27.86;60.33
70921;BME280;58572;48.110;19.838;2023-06-22T10:23:38;98098.13;;;28.25;60.64
70921;BME280;58572;48.110;19.838;2023-06-22T10:26:05;98107.31;;;28.26;58.52
70921;BME280;58572;48.110;19.838;2023-06-22T10:28:33;98100.19;;;28.53;57.65
70921;BME280;58572;48.110;19.838;2023-06-22T10:31:00;98099.78;;;28.51;59.72
70921;BME280;58572;48.110;19.838;2023-06-22T10:33:27;98105.91;;;27.84;63.14
70921;BME280;58572;48.110;19.838;2023-06-22T10:35:56;98105.31;;;27.54;64.54
70921;BME280;58572;48.110;19.838;2023-06-22T10:38:23;98105.81;;;26.67;60.26
70921;BME280;58572;48.110;19.838;2023-06-22T10:40:50;98104.28;;;27.76;61.69
70921;BME280;58572;48.110;19.838;2023-06-22T10:43:18;98097.28;;;28.18;61.22
70921;BME280;58572;48.110;19.838;2023-06-22T10:45:46;98109.38;;;28.57;59.12
70921;BME280;58572;48.110;19.838;2023-06-22T10:48:12;98109.41;;;28.72;57.55
70921;BME280;58572;48.110;19.838;2023-06-22T10:50:40;98107.28;;;27.50;65.17
70921;BME280;58572;48.110;19.838;2023-06-22T10:53:08;98105.31;;;27.54;58.33
70921;BME280;58572;48.110;19.838;2023-06-22T10:55:35;98103.41;;;27.61;56.40
70921;BME280;58572;48.110;19.838;2023-06-22T10:58:02;98103.03;;;28.96;58.47
70921;BME280;58572;48.110;19.838;2023-06-22T11:00:29;98097.75;;;28.38;60.56
70921;BME280;58572;48.110;19.838;2023-06-22T11:02:56;98108.03;;;28.12;60.47
70921;BME280;58572;48.110;19.838;2023-06-22T11:05:23;98104.66;;;29.18;58.30
70921;BME280;58572;48.110;19.838;2023-06-22T11:07:50;98091.84;;;29.46;58.74
70921;BME280;58572;48.110;19.838;2023-06-22T11:10:20;98093.44;;;28.97;62.27
70921;BME280;58572;48.110;19.838;2023-06-22T11:12:47;98088.97;;;28.46;67.25
70921;BME280;58572;48.110;19.838;2023-06-22T11:15:15;98085.47;;;29.13;57.24
70921;BME280;58572;48.110;19.838;2023-06-22T11:17:42;98083.03;;;29.37;56.40
70921;BME280;58572;48.110;19.838;2023-06-22T11:20:09;98096.22;;;27.64;57.93
70921;BME280;58572;48.110;19.838;2023-06-22T11:22:37;98048.53;;;28.12;56.89
70921;BME280;58572;48.110;19.838;2023-06-22T11:25:05;98089.53;;;27.83;55.28
70921;BME280;58572;48.110;19.838;2023-06-22T11:27:35;98078.00;;;27.98;56.30
70921;BME280;58572;48.110;19.838;2023-06-22T11:30:03;98078.59;;;29.57;54.69
70921;BME280;58572;48.110;19.838;2023-06-22T11:32:31;98073.34;;;29.66;56.37
70921;BME280;58572;48.110;19.838;2023-06-22T11:34:58;98079.31;;;28.22;56.73
70921;BME280;58572;48.110;19.838;2023-06-22T11:37:25;98070.22;;;28.57;58.79
70921;BME280;58572;48.110;19.838;2023-06-22T11:39:52;98058.94;;;29.71;57.66
70921;BME280;58572;48.110;19.838;2023-06-22T11:42:20;98064.25;;;28.87;56.99
70921;BME280;58572;48.110;19.838;2023-06-22T11:44:50;98047.19;;;30.01;56.36
70921;BME280;58572;48.110;19.838;2023-06-22T11:47:18;97985.44;;;29.10;55.06
70921;BME280;58572;48.110;19.838;2023-06-22T11:49:44;98067.03;;;29.27;53.41
70921;BME280;58572;48.110;19.838;2023-06-22T11:52:11;97963.09;;;28.60;57.09
70921;BME280;58572;48.110;19.838;2023-06-22T11:54:39;98063.44;;;30.38;54.43
70921;BME280;58572;48.110;19.838;2023-06-22T11:57:05;98061.50;;;30.28;58.26
70921;BME280;58572;48.110;19.838;2023-06-22T11:59:33;98071.84;;;29.01;57.03
70921;BME280;58572;48.110;19.838;2023-06-22T12:02:02;98069.97;;;30.14;55.27
70921;BME280;58572;48.110;19.838;2023-06-22T12:04:31;98022.22;;;29.23;54.42
70921;BME280;58572;48.110;19.838;2023-06-22T12:06:58;98070.25;;;28.86;65.71
70921;BME280;58572;48.110;19.838;2023-06-22T12:09:25;98053.31;;;29.71;55.05
70921;BME280;58572;48.110;19.838;2023-06-22T12:11:53;98067.06;;;29.16;61.60
70921;BME280;58572;48.110;19.838;2023-06-22T12:14:21;98062.22;;;28.63;54.21
70921;BME280;58572;48.110;19.838;2023-06-22T12:16:48;98047.63;;;29.93;56.52
70921;BME280;58572;48.110;19.838;2023-06-22T12:19:17;98053.81;;;28.74;62.46
70921;BME280;58572;48.110;19.838;2023-06-22T12:21:44;98054.97;;;28.26;64.10
70921;BME280;58572;48.110;19.838;2023-06-22T12:24:12;98041.19;;;27.68;56.91
70921;BME280;58572;48.110;19.838;2023-06-22T12:26:39;98042.22;;;28.33;62.93
70921;BME280;58572;48.110;19.838;2023-06-22T12:29:06;98039.41;;;29.36;60.75
70921;BME280;58572;48.110;19.838;2023-06-22T12:31:33;98040.34;;;30.09;56.39
70921;BME280;58572;48.110;19.838;2023-06-22T12:34:00;98032.16;;;30.95;54.27
70921;BME280;58572;48.110;19.838;2023-06-22T12:36:29;98038.34;;;30.76;58.14
70921;BME280;58572;48.110;19.838;2023-06-22T12:38:56;98034.19;;;31.36;57.58
70921;BME280;58572;48.110;19.838;2023-06-22T12:41:23;98018.16;;;30.88;57.11
70921;BME280;58572;48.110;19.838;2023-06-22T12:43:51;98034.88;;;29.77;53.78
70921;BME280;58572;48.110;19.838;2023-06-22T12:46:18;98028.63;;;29.23;53.13
70921;BME280;58572;48.110;19.838;2023-06-22T12:48:45;98031.28;;;30.50;54.48
70921;BME280;58572;48.110;19.838;2023-06-22T12:51:21;98028.63;;;30.84;51.52
70921;BME280;58572;48.110;19.838;2023-06-22T12:53:53;98023.34;;;31.38;52.63
70921;BME280;58572;48.110;19.838;2023-06-22T12:56:22;98020.22;;;31.97;51.05